createdAt,value
2022-07-31T00:00:55.912Z,59.54
2022-07-31T00:03:23.832Z,59.24
2022-07-31T00:05:53.272Z,59.55
2022-07-31T00:08:21.175Z,59.17
2022-07-31T00:10:49.135Z,59.44
2022-07-31T00:13:17.107Z,59.35
2022-07-31T00:15:45.708Z,59.68
2022-07-31T00:18:13.828Z,59.33
2022-07-31T00:20:42.104Z,59.29
2022-07-31T00:23:12.986Z,59.60
2022-07-31T00:25:46.963Z,59.63
2022-07-31T00:28:15.026Z,59.53
2022-07-31T00:30:44.626Z,59.40
2022-07-31T00:33:12.485Z,59.44
2022-07-31T00:35:40.599Z,59.81
2022-07-31T00:38:26.315Z,59.85
2022-07-31T00:40:56.986Z,59.58
2022-07-31T00:43:27.431Z,59.78
2022-07-31T00:45:59.610Z,59.86
2022-07-31T00:48:28.042Z,59.83
2022-07-31T00:50:56.251Z,59.53
2022-07-31T00:53:24.259Z,59.82
2022-07-31T00:55:52.414Z,59.47
2022-07-31T00:58:22.222Z,59.65
2022-07-31T01:00:50.618Z,59.51
2022-07-31T01:03:19.182Z,59.91
2022-07-31T01:05:47.688Z,59.57
2022-07-31T01:08:15.671Z,59.96
2022-07-31T01:10:53.777Z,59.64
2022-07-31T01:13:32.179Z,59.88
2022-07-31T01:16:02.468Z,59.95
2022-07-31T01:18:34.309Z,59.75
2022-07-31T01:21:06.888Z,59.66
2022-07-31T01:23:58.019Z,59.75
2022-07-31T01:26:37.946Z,59.63
2022-07-31T01:29:17.224Z,59.97
2022-07-31T01:31:47.708Z,59.59
2022-07-31T01:34:24.793Z,59.83
2022-07-31T01:37:01.911Z,59.78
2022-07-31T01:39:34.279Z,59.59
2022-07-31T01:42:05.902Z,59.72
2022-07-31T01:44:41.931Z,59.99
2022-07-31T01:47:11.232Z,59.77
2022-07-31T01:49:41.186Z,60.10
2022-07-31T01:52:09.914Z,59.84
2022-07-31T01:54:39.066Z,59.75
2022-07-31T01:57:08.942Z,59.71
2022-07-31T01:59:42.533Z,60.00
2022-07-31T02:02:13.638Z,59.84
2022-07-31T02:04:42.106Z,59.75
2022-07-31T02:07:11.313Z,59.85
2022-07-31T02:09:58.309Z,60.03
2022-07-31T02:12:33.869Z,59.82
2022-07-31T02:15:05.619Z,60.16
2022-07-31T02:17:34.856Z,60.16
2022-07-31T02:20:03.927Z,60.15
2022-07-31T02:22:32.086Z,60.19
2022-07-31T02:25:00.188Z,60.23
2022-07-31T02:27:55.409Z,60.30
2022-07-31T02:30:19.867Z,59.92
2022-07-31T02:32:49.458Z,59.91
2022-07-31T02:35:19.023Z,60.26
2022-07-31T02:37:50.127Z,60.08
2022-07-31T02:40:20.218Z,60.45
2022-07-31T02:42:49.418Z,60.42
2022-07-31T02:45:17.948Z,60.03
2022-07-31T02:47:48.575Z,60.29
2022-07-31T02:50:20.452Z,60.07
2022-07-31T02:52:49.054Z,60.46
2022-07-31T02:55:18.589Z,60.34
2022-07-31T02:57:48.668Z,60.41
2022-07-31T03:00:23.104Z,60.38
2022-07-31T03:02:53.636Z,60.39
2022-07-31T03:05:22.287Z,60.39
2022-07-31T03:07:50.797Z,60.23
2022-07-31T03:10:18.888Z,60.23
2022-07-31T03:12:50.206Z,60.18
2022-07-31T03:15:20.218Z,60.48
2022-07-31T03:17:50.435Z,60.59
2022-07-31T03:20:20.274Z,60.50
2022-07-31T03:22:48.474Z,60.70
2022-07-31T03:25:21.213Z,60.43
2022-07-31T03:27:52.687Z,60.41
2022-07-31T03:30:26.263Z,60.31
2022-07-31T03:32:54.593Z,60.74
2022-07-31T03:35:24.573Z,60.32
2022-07-31T03:37:54.242Z,60.47
2022-07-31T03:40:22.372Z,60.68
2022-07-31T03:42:51.267Z,60.72
2022-07-31T03:45:22.315Z,60.46
2022-07-31T03:47:50.732Z,60.61
2022-07-31T03:50:19.135Z,60.42
2022-07-31T03:52:49.068Z,60.52
2022-07-31T03:55:17.610Z,60.50
2022-07-31T03:57:47.665Z,60.58
2022-07-31T04:00:17.931Z,60.61
2022-07-31T04:02:46.784Z,60.59
2022-07-31T04:05:15.316Z,60.92
2022-07-31T04:07:43.626Z,60.79
2022-07-31T04:10:13.758Z,60.81
2022-07-31T04:12:42.160Z,60.66
2022-07-31T04:15:10.858Z,60.51
2022-07-31T04:17:38.932Z,60.62
2022-07-31T04:20:08.534Z,60.90
2022-07-31T04:22:36.466Z,60.86
2022-07-31T04:25:05.293Z,60.70
2022-07-31T04:27:48.290Z,61.01
2022-07-31T04:30:17.133Z,61.07
2022-07-31T04:32:45.471Z,60.58
2022-07-31T04:35:14.028Z,61.00
2022-07-31T04:37:43.218Z,60.67
2022-07-31T04:40:16.598Z,61.08
2022-07-31T04:42:45.934Z,61.00
2022-07-31T04:45:13.923Z,60.62
2022-07-31T04:47:41.845Z,61.03
2022-07-31T04:50:10.708Z,61.16
2022-07-31T04:52:38.746Z,60.86
2022-07-31T04:55:07.805Z,61.01
2022-07-31T04:57:37.481Z,60.64
2022-07-31T05:00:08.713Z,60.91
2022-07-31T05:02:36.887Z,60.68
2022-07-31T05:05:05.217Z,60.92
2022-07-31T05:07:34.655Z,61.17
2022-07-31T05:10:02.941Z,61.15
2022-07-31T05:12:30.971Z,60.80
2022-07-31T05:14:58.870Z,61.19
2022-07-31T05:17:28.164Z,61.04
2022-07-31T05:19:56.186Z,60.78
2022-07-31T05:22:24.424Z,60.94
2022-07-31T05:24:52.561Z,61.37
2022-07-31T05:27:20.782Z,61.14
2022-07-31T05:29:49.133Z,61.18
2022-07-31T05:32:17.487Z,61.18
2022-07-31T05:34:46.937Z,61.17
2022-07-31T05:37:15.150Z,60.76
2022-07-31T05:39:43.199Z,60.95
2022-07-31T05:42:12.426Z,61.29
2022-07-31T05:44:40.343Z,61.29
2022-07-31T05:47:08.978Z,60.85
2022-07-31T05:49:37.031Z,61.20
2022-07-31T05:52:07.098Z,61.00
2022-07-31T05:54:35.369Z,61.09
2022-07-31T05:57:03.637Z,61.22
2022-07-31T05:59:33.031Z,60.91
2022-07-31T06:02:02.460Z,61.20
2022-07-31T06:04:30.778Z,61.26
2022-07-31T06:06:58.731Z,61.35
2022-07-31T06:09:28.210Z,60.97
2022-07-31T06:11:56.290Z,61.35
2022-07-31T06:14:24.375Z,61.02
2022-07-31T06:16:53.348Z,61.46
2022-07-31T06:19:24.337Z,61.32
2022-07-31T06:21:53.810Z,61.45
2022-07-31T06:24:22.423Z,61.18
2022-07-31T06:26:52.110Z,61.28
2022-07-31T06:29:23.817Z,61.58
2022-07-31T06:32:10.355Z,61.50
2022-07-31T06:34:38.238Z,61.39
2022-07-31T06:37:06.451Z,61.62
2022-07-31T06:39:55.543Z,61.31
2022-07-31T06:42:25.247Z,61.77
2022-07-31T06:44:53.713Z,61.66
2022-07-31T06:47:23.527Z,61.52
2022-07-31T06:49:52.126Z,61.57
2022-07-31T06:52:21.377Z,61.86
2022-07-31T06:54:49.447Z,61.73
2022-07-31T06:57:17.611Z,61.83
2022-07-31T06:59:47.095Z,61.53
2022-07-31T07:02:15.253Z,61.39
2022-07-31T07:05:04.924Z,61.59
2022-07-31T07:07:31.728Z,61.47
2022-07-31T07:10:00.263Z,61.82
2022-07-31T07:12:28.443Z,61.80
2022-07-31T07:14:58.161Z,61.88
2022-07-31T07:17:29.188Z,61.67
2022-07-31T07:19:58.148Z,61.56
2022-07-31T07:22:31.106Z,61.72
2022-07-31T07:25:00.500Z,61.60
2022-07-31T07:27:28.851Z,61.99
2022-07-31T07:29:58.582Z,61.72
2022-07-31T07:32:26.602Z,61.64
2022-07-31T07:34:59.984Z,61.84
2022-07-31T07:37:29.502Z,61.88
2022-07-31T07:39:58.328Z,62.14
2022-07-31T07:42:32.319Z,61.72
2022-07-31T07:45:02.791Z,62.00
2022-07-31T07:48:04.900Z,62.06
2022-07-31T07:50:29.502Z,62.16
2022-07-31T07:52:58.002Z,62.08
2022-07-31T07:55:26.498Z,62.07
2022-07-31T07:57:57.574Z,61.72
2022-07-31T08:00:27.084Z,61.69
2022-07-31T08:03:46.649Z,61.97
2022-07-31T08:05:43.661Z,61.91
2022-07-31T08:08:11.866Z,61.81
2022-07-31T08:10:41.229Z,61.98
2022-07-31T08:13:09.971Z,61.65
2022-07-31T08:15:39.742Z,61.57
2022-07-31T08:18:08.246Z,61.61
2022-07-31T08:20:38.777Z,61.54
2022-07-31T08:23:07.012Z,61.77
2022-07-31T08:25:35.847Z,61.81
2022-07-31T08:28:04.566Z,61.44
2022-07-31T08:30:34.677Z,61.42
2022-07-31T08:33:04.429Z,61.57
2022-07-31T08:35:32.945Z,61.55
2022-07-31T08:38:03.257Z,61.55
2022-07-31T08:40:42.783Z,61.22
2022-07-31T08:43:25.182Z,61.49
2022-07-31T08:46:02.893Z,61.53
2022-07-31T08:48:35.318Z,61.57
2022-07-31T08:51:04.913Z,61.31
2022-07-31T08:53:37.816Z,60.86
2022-07-31T08:56:07.379Z,61.25
2022-07-31T08:58:39.396Z,61.15
2022-07-31T09:01:09.239Z,61.05
2022-07-31T09:03:38.710Z,60.96
2022-07-31T09:06:07.703Z,60.66
2022-07-31T09:08:37.094Z,61.04
2022-07-31T09:11:06.023Z,60.77
2022-07-31T09:13:35.510Z,60.58
2022-07-31T09:16:04.648Z,60.86
2022-07-31T09:18:35.404Z,60.64
2022-07-31T09:21:08.463Z,60.47
2022-07-31T09:23:45.652Z,60.75
2022-07-31T09:26:13.631Z,60.87
2022-07-31T09:28:44.368Z,60.73
2022-07-31T09:31:14.120Z,60.43
2022-07-31T09:33:46.266Z,60.65
2022-07-31T09:36:16.178Z,60.39
2022-07-31T09:38:44.923Z,60.75
2022-07-31T09:41:16.628Z,60.62
2022-07-31T09:44:10.382Z,60.64
2022-07-31T09:46:42.237Z,60.59
2022-07-31T09:49:10.986Z,60.46
2022-07-31T09:51:42.022Z,60.46
2022-07-31T09:54:21.175Z,59.97
2022-07-31T09:56:50.354Z,59.95
2022-07-31T09:59:18.975Z,60.14
2022-07-31T10:01:49.010Z,60.15
2022-07-31T10:04:18.242Z,60.16
2022-07-31T10:06:50.629Z,60.29
2022-07-31T10:09:20.788Z,60.48
2022-07-31T10:11:51.165Z,60.33
2022-07-31T10:14:28.278Z,59.97
2022-07-31T10:17:00.195Z,59.92
2022-07-31T10:19:33.036Z,59.84
2022-07-31T10:22:05.801Z,59.84
2022-07-31T10:24:35.363Z,60.00
2022-07-31T10:27:08.068Z,59.75
2022-07-31T10:29:39.430Z,60.14
2022-07-31T10:32:08.566Z,59.90
2022-07-31T10:34:37.366Z,59.87
2022-07-31T10:37:13.126Z,59.76
2022-07-31T10:39:50.765Z,59.95
2022-07-31T10:42:30.151Z,60.08
2022-07-31T10:45:07.008Z,60.05
2022-07-31T10:47:35.114Z,59.92
2022-07-31T10:50:04.536Z,59.75
2022-07-31T10:52:35.331Z,60.10
2022-07-31T10:55:03.360Z,59.81
2022-07-31T10:57:32.780Z,59.89
2022-07-31T11:00:11.978Z,60.20
2022-07-31T11:02:40.474Z,60.00
2022-07-31T11:05:13.377Z,60.02
2022-07-31T11:07:45.882Z,60.10
2022-07-31T11:10:17.097Z,59.80
2022-07-31T11:12:45.934Z,60.00
2022-07-31T11:15:24.754Z,60.07
2022-07-31T11:18:25.196Z,60.14
2022-07-31T11:20:46.792Z,60.17
2022-07-31T11:23:17.764Z,59.81
2022-07-31T11:25:47.311Z,59.72
2022-07-31T11:28:19.151Z,59.88
2022-07-31T11:30:55.187Z,59.59
2022-07-31T11:33:41.691Z,59.55
2022-07-31T11:36:12.492Z,59.54
2022-07-31T11:38:44.738Z,59.71
2022-07-31T11:41:15.462Z,59.84
2022-07-31T11:43:48.286Z,59.81
2022-07-31T11:46:25.058Z,59.51
2022-07-31T11:48:53.649Z,59.59
2022-07-31T11:51:22.070Z,59.65
2022-07-31T11:53:57.243Z,59.18
2022-07-31T11:56:27.530Z,59.45
2022-07-31T11:58:57.571Z,59.49
2022-07-31T12:01:28.621Z,59.39
2022-07-31T12:04:08.361Z,59.42
2022-07-31T12:06:37.477Z,59.29
2022-07-31T12:09:06.984Z,59.42
2022-07-31T12:11:35.549Z,59.38
2022-07-31T12:14:03.716Z,59.37
2022-07-31T12:16:41.928Z,59.34
2022-07-31T12:19:10.394Z,59.13
2022-07-31T12:21:41.042Z,59.11
2022-07-31T12:24:15.213Z,59.17
2022-07-31T12:26:50.380Z,59.25
2022-07-31T12:29:18.648Z,59.30
2022-07-31T12:31:48.783Z,59.13
2022-07-31T12:34:27.906Z,59.09
2022-07-31T12:37:03.938Z,58.98
2022-07-31T12:39:54.507Z,59.22
2022-07-31T12:42:30.938Z,59.03
2022-07-31T12:45:18.393Z,59.16
2022-07-31T12:47:52.149Z,59.12
2022-07-31T12:50:21.166Z,59.11
2022-07-31T12:52:49.415Z,58.94
2022-07-31T12:55:19.731Z,58.67
2022-07-31T12:57:51.321Z,58.40
2022-07-31T13:00:23.101Z,58.75
2022-07-31T13:02:51.573Z,58.46
2022-07-31T13:05:19.632Z,58.50
2022-07-31T13:07:47.649Z,58.54
2022-07-31T13:10:22.206Z,58.37
2022-07-31T13:12:55.091Z,58.62
2022-07-31T13:15:30.101Z,58.27
2022-07-31T13:17:59.408Z,58.54
2022-07-31T13:20:27.597Z,58.31
2022-07-31T13:22:56.031Z,58.34
2022-07-31T13:25:23.962Z,57.95
2022-07-31T13:27:53.803Z,57.97
2022-07-31T13:30:22.230Z,58.19
2022-07-31T13:32:50.513Z,58.07
2022-07-31T13:35:27.763Z,58.03
2022-07-31T13:37:57.119Z,57.87
2022-07-31T13:40:39.434Z,57.89
2022-07-31T13:43:14.160Z,57.88
2022-07-31T13:45:42.449Z,57.68
2022-07-31T13:48:10.825Z,57.63
2022-07-31T13:50:40.054Z,57.60
2022-07-31T13:53:08.392Z,57.50
2022-07-31T13:55:36.635Z,57.41
2022-07-31T13:58:05.113Z,57.38
2022-07-31T14:00:34.605Z,57.45
2022-07-31T14:03:02.621Z,57.35
2022-07-31T14:05:37.922Z,57.27
2022-07-31T14:08:32.946Z,57.39
2022-07-31T14:10:58.627Z,57.29
2022-07-31T14:13:26.858Z,57.21
2022-07-31T14:15:56.389Z,57.18
2022-07-31T14:18:24.819Z,57.56
2022-07-31T14:20:54.465Z,57.20
2022-07-31T14:23:27.816Z,57.48
2022-07-31T14:26:04.041Z,57.12
2022-07-31T14:28:32.666Z,57.01
2022-07-31T14:31:03.531Z,56.79
2022-07-31T14:33:31.692Z,56.84
2022-07-31T14:36:00.031Z,56.72
2022-07-31T14:38:28.226Z,57.10
2022-07-31T14:40:56.836Z,56.76
2022-07-31T14:43:25.094Z,56.80
2022-07-31T14:45:53.195Z,56.80
2022-07-31T14:48:23.027Z,57.07
2022-07-31T14:50:51.218Z,56.98
2022-07-31T14:53:19.168Z,57.00
2022-07-31T14:55:47.398Z,56.97
2022-07-31T14:58:15.386Z,56.83
2022-07-31T15:00:43.430Z,56.73
2022-07-31T15:03:11.422Z,56.97
2022-07-31T15:06:41.467Z,56.58
2022-07-31T15:08:29.942Z,57.08
2022-07-31T15:11:00.347Z,56.66
2022-07-31T15:13:29.597Z,57.01
2022-07-31T15:15:58.738Z,56.94
2022-07-31T15:18:26.627Z,56.50
2022-07-31T15:20:56.044Z,56.54
2022-07-31T15:23:24.040Z,56.56
2022-07-31T15:25:52.086Z,56.64
2022-07-31T15:28:20.048Z,56.85
2022-07-31T15:30:48.008Z,56.55
2022-07-31T15:33:15.983Z,56.61
2022-07-31T15:35:43.866Z,56.70
2022-07-31T15:38:13.446Z,56.58
2022-07-31T15:40:41.650Z,56.60
2022-07-31T15:43:09.540Z,56.78
2022-07-31T15:45:37.726Z,56.83
2022-07-31T15:48:11.265Z,56.82
2022-07-31T15:50:39.198Z,56.65
2022-07-31T15:53:07.110Z,56.77
2022-07-31T15:55:36.631Z,56.96
2022-07-31T15:58:04.883Z,56.88
2022-07-31T16:00:33.202Z,57.02
2022-07-31T16:03:02.091Z,56.98
2022-07-31T16:05:36.512Z,56.98
2022-07-31T16:08:30.363Z,57.21
2022-07-31T16:10:59.851Z,57.04
2022-07-31T16:13:27.790Z,57.26
2022-07-31T16:15:56.004Z,57.26
2022-07-31T16:18:24.133Z,57.39
2022-07-31T16:20:52.307Z,57.14
2022-07-31T16:23:20.598Z,57.13
2022-07-31T16:25:48.921Z,57.35
2022-07-31T16:28:18.629Z,57.50
2022-07-31T16:30:46.878Z,57.68
2022-07-31T16:33:14.889Z,57.61
2022-07-31T16:35:43.031Z,57.68
2022-07-31T16:38:11.092Z,57.68
2022-07-31T16:40:39.174Z,57.36
2022-07-31T16:43:49.893Z,57.79
2022-07-31T16:45:58.753Z,57.61
2022-07-31T16:48:27.188Z,57.52
2022-07-31T16:50:55.412Z,57.55
2022-07-31T16:54:10.912Z,57.49
2022-07-31T16:56:12.701Z,57.54
2022-07-31T16:58:41.324Z,57.83
2022-07-31T17:01:53.172Z,57.90
2022-07-31T17:04:03.094Z,57.70
2022-07-31T17:06:36.757Z,57.97
2022-07-31T17:09:16.451Z,57.77
2022-07-31T17:11:48.310Z,58.04
2022-07-31T17:14:17.056Z,57.73
2022-07-31T17:16:49.022Z,57.81
2022-07-31T17:19:42.363Z,57.56
2022-07-31T17:22:07.310Z,57.68
2022-07-31T17:24:37.609Z,57.85
2022-07-31T17:27:07.361Z,57.39
2022-07-31T17:29:36.126Z,57.68
2022-07-31T17:32:06.752Z,57.31
2022-07-31T17:34:35.572Z,57.39
2022-07-31T17:37:04.343Z,57.42
2022-07-31T17:39:32.746Z,57.57
2022-07-31T17:42:01.018Z,57.58
2022-07-31T17:44:29.192Z,57.06
2022-07-31T17:46:58.313Z,56.94
2022-07-31T17:49:29.120Z,57.03
2022-07-31T17:51:59.626Z,57.09
2022-07-31T17:54:29.289Z,57.20
2022-07-31T17:56:57.664Z,57.15
2022-07-31T17:59:26.035Z,56.93
2022-07-31T18:01:59.946Z,56.90
2022-07-31T18:04:30.570Z,57.31
2022-07-31T18:06:59.273Z,57.38
2022-07-31T18:09:28.206Z,57.03
2022-07-31T18:11:56.838Z,57.18
2022-07-31T18:14:25.346Z,57.12
2022-07-31T18:16:54.714Z,57.29
2022-07-31T18:19:23.260Z,57.34
2022-07-31T18:21:53.474Z,57.10
2022-07-31T18:24:22.016Z,56.92
2022-07-31T18:26:52.042Z,57.16
2022-07-31T18:29:20.353Z,56.95
2022-07-31T18:31:48.873Z,57.30
2022-07-31T18:34:17.524Z,57.32
2022-07-31T18:36:45.915Z,57.00
2022-07-31T18:39:16.095Z,57.28
2022-07-31T18:41:48.619Z,57.07
2022-07-31T18:44:17.643Z,57.20
2022-07-31T18:46:45.933Z,57.53
2022-07-31T18:51:02.347Z,57.29
2022-07-31T18:52:03.208Z,57.48
2022-07-31T18:54:32.792Z,57.59
2022-07-31T18:57:01.204Z,57.49
2022-07-31T18:59:29.149Z,57.32
2022-07-31T19:01:57.434Z,57.78
2022-07-31T19:04:25.838Z,57.71
2022-07-31T19:06:54.717Z,57.26
2022-07-31T19:09:25.049Z,57.70
2022-07-31T19:12:01.785Z,57.37
2022-07-31T19:14:34.571Z,57.39
2022-07-31T19:17:02.621Z,57.68
2022-07-31T19:19:42.572Z,57.55
2022-07-31T19:22:20.460Z,57.33
2022-07-31T19:24:49.910Z,57.75
2022-07-31T19:27:19.929Z,57.51
2022-07-31T19:29:48.489Z,57.79
2022-07-31T19:32:16.630Z,57.83
2022-07-31T19:34:48.005Z,57.53
2022-07-31T19:37:18.837Z,57.99
2022-07-31T19:39:47.010Z,57.95
2022-07-31T19:42:15.354Z,57.70
2022-07-31T19:44:44.990Z,57.82
2022-07-31T19:47:13.547Z,57.89
2022-07-31T19:49:44.850Z,57.89
2022-07-31T19:52:13.497Z,58.02
2022-07-31T19:54:41.638Z,57.95
2022-07-31T19:57:11.309Z,57.85
2022-07-31T19:59:39.838Z,58.06
2022-07-31T20:02:12.937Z,57.99
2022-07-31T20:04:43.330Z,58.06
2022-07-31T20:07:11.533Z,57.78
2022-07-31T20:09:39.791Z,58.15
2022-07-31T20:12:09.389Z,58.21
2022-07-31T20:14:37.624Z,57.90
2022-07-31T20:17:06.110Z,58.22
2022-07-31T20:19:36.033Z,58.06
2022-07-31T20:22:24.081Z,58.26
2022-07-31T20:24:54.210Z,58.10
2022-07-31T20:27:22.551Z,58.33
2022-07-31T20:29:50.769Z,57.91
2022-07-31T20:32:18.755Z,58.02
2022-07-31T20:34:51.121Z,58.29
2022-07-31T20:37:19.208Z,58.26
2022-07-31T20:39:47.296Z,58.16
2022-07-31T20:42:15.374Z,58.49
2022-07-31T20:44:44.767Z,58.48
2022-07-31T20:47:14.763Z,58.33
2022-07-31T20:49:42.792Z,58.67
2022-07-31T20:52:12.185Z,58.26
2022-07-31T20:54:40.514Z,58.62
2022-07-31T20:57:09.008Z,58.32
2022-07-31T20:59:37.171Z,58.59
2022-07-31T21:02:05.787Z,58.27
2022-07-31T21:04:33.934Z,58.41
2022-07-31T21:07:02.178Z,58.68
2022-07-31T21:09:32.826Z,58.74
2022-07-31T21:12:02.989Z,58.72
2022-07-31T21:14:31.393Z,58.51
2022-07-31T21:16:59.509Z,58.78
2022-07-31T21:19:27.638Z,58.55
2022-07-31T21:21:56.228Z,58.42
2022-07-31T21:24:25.201Z,58.39
2022-07-31T21:27:00.077Z,58.50
2022-07-31T21:29:28.827Z,58.54
2022-07-31T21:31:57.631Z,58.83
2022-07-31T21:34:26.359Z,58.60
2022-07-31T21:36:55.179Z,58.86
2022-07-31T21:39:26.020Z,58.87
2022-07-31T21:41:56.052Z,58.60
2022-07-31T21:44:25.405Z,58.62
2022-07-31T21:46:56.856Z,58.95
2022-07-31T21:49:27.023Z,58.66
2022-07-31T21:51:55.666Z,58.70
2022-07-31T21:54:24.207Z,58.84
2022-07-31T21:56:52.367Z,59.01
2022-07-31T21:59:22.259Z,58.72
2022-07-31T22:01:57.993Z,58.95
2022-07-31T22:04:56.415Z,58.62
2022-07-31T22:07:32.651Z,58.69
2022-07-31T22:10:00.878Z,59.00
2022-07-31T22:12:29.005Z,59.00
2022-07-31T22:14:58.801Z,58.86
2022-07-31T22:17:26.983Z,59.16
2022-07-31T22:19:58.961Z,58.83
2022-07-31T22:22:27.713Z,59.02
2022-07-31T22:24:56.503Z,58.90
2022-07-31T22:27:42.812Z,59.21
2022-07-31T22:30:14.131Z,58.95
2022-07-31T22:32:42.388Z,59.00
2022-07-31T22:35:12.947Z,59.04
2022-07-31T22:37:42.901Z,59.06
2022-07-31T22:40:11.829Z,59.33
2022-07-31T22:42:40.098Z,59.53
2022-07-31T22:45:09.614Z,59.22
2022-07-31T22:47:39.889Z,59.37
2022-07-31T22:50:10.004Z,59.61
2022-07-31T22:52:39.043Z,59.52
2022-07-31T22:55:07.972Z,59.37
2022-07-31T22:57:36.158Z,59.46
2022-07-31T23:00:05.987Z,59.83
2022-07-31T23:02:34.342Z,59.57
2022-07-31T23:05:04.031Z,59.75
2022-07-31T23:07:32.253Z,59.75
2022-07-31T23:10:00.569Z,59.61
2022-07-31T23:12:29.529Z,59.64
2022-07-31T23:14:57.793Z,59.74
2022-07-31T23:17:26.193Z,60.00
2022-07-31T23:19:54.815Z,60.04
2022-07-31T23:22:33.940Z,59.65
2022-07-31T23:25:02.517Z,60.12
2022-07-31T23:27:30.838Z,59.75
2022-07-31T23:29:59.078Z,59.79
2022-07-31T23:32:27.091Z,60.07
2022-07-31T23:34:55.207Z,60.22
2022-07-31T23:37:24.674Z,60.00
2022-07-31T23:39:52.885Z,60.32
2022-07-31T23:42:39.394Z,60.15
2022-07-31T23:45:11.254Z,60.20
2022-07-31T23:47:46.084Z,60.34
2022-07-31T23:50:16.039Z,60.37
2022-07-31T23:52:45.996Z,60.47
2022-07-31T23:55:14.146Z,60.33
2022-07-31T23:57:42.535Z,60.14
